CDT,Max TemperatureF,Mean TemperatureF,Min TemperatureF,Max Dew PointF,MeanDew PointF,Min DewpointF,Max Humidity, Mean Humidity, Min Humidity, Max Sea Level PressureIn, Mean Sea Level PressureIn, Min Sea Level PressureIn, Max VisibilityMiles, Mean VisibilityMiles, Min VisibilityMiles, Max Wind SpeedMPH, Mean Wind SpeedMPH, Max Gust SpeedMPH,PrecipitationIn, CloudCover, Events, WindDirDegrees
2011-10-1,48,48,48,44,43,42,83,81,79,30.14,30.14,30.14,10,10,10,7,5,,0.00,0,,247
2011-10-2,74,52,45,48,46,42,87,81,67,30.22,30.21,30.19,10,10,10,2,1,,0.00,0,,70
2011-10-3,79,59,40,52,43,37,92,60,25,30.32,30.25,30.19,10,10,10,7,1,,0.00,0,Rain,167
2011-10-4,81,62,43,51,44,39,93,59,24,30.32,30.23,30.19,10,10,10,8,1,,0.00,0,Rain,67
2011-10-5,83,63,44,54,49,42,93,63,28,30.25,30.19,30.11,10,10,10,9,1,,0.00,0,,75
2011-10-6,86,70,53,57,53,50,94,67,29,30.19,30.14,30.09,10,10,10,12,2,18,0.00,1,,116
2011-10-7,86,70,53,58,54,52,95,62,32,30.25,30.19,30.14,10,9,2,12,3,20,0.00,0,,120
2011-10-8,86,68,52,61,56,52,96,65,37,30.24,30.18,30.12,10,10,10,10,4,,0.00,0,,101
2011-10-9,83,69,57,57,56,53,92,66,38,30.21,30.13,30.06,10,10,10,15,6,21,0.00,0,,90
2011-10-10,81,68,55,62,58,54,96,75,47,30.11,30.04,29.97,10,10,10,8,2,,0.00,1,,75
2011-10-11,84,68,55,63,59,54,94,74,43,29.99,29.93,29.84,10,10,10,9,2,,0.00,2,Rain,131
2011-10-12,70,63,57,64,62,56,100,95,77,29.86,29.78,29.73,10,5,0,16,3,,0.73,6,Fog-Rain-Thunderstorm,304
2011-10-13,79,66,53,61,57,43,100,89,30,29.88,29.75,29.71,10,7,1,13,4,23,0.07,3,Rain-Thunderstorm,270
2011-10-14,84,64,46,55,48,40,91,64,22,30.00,29.94,29.88,10,9,2,9,3,,0.00,0,,254
2011-10-15,77,61,46,50,44,36,93,64,26,30.18,30.10,30.01,10,10,10,7,1,,0.00,0,,67
2011-10-16,88,75,57,58,55,53,87,49,30,30.01,29.94,29.92,10,10,10,14,8,,0.00,0,,197
2011-10-17,86,68,51,60,55,50,96,67,37,29.95,29.84,29.71,10,10,10,10,2,,0.00,0,,104
2011-10-18,68,55,44,61,50,41,94,87,63,29.91,29.81,29.67,10,8,2,18,7,30,0.65,7,Rain-Thunderstorm,333
2011-10-19,57,48,42,40,35,33,78,61,43,30.00,29.91,29.86,10,10,10,17,8,25,0.00,3,,295
2011-10-20,62,48,34,35,32,28,86,62,27,30.14,30.05,30.00,10,10,10,14,7,22,0.00,0,,264
2011-10-21,70,51,32,44,36,30,93,68,29,30.27,30.19,30.15,10,10,10,6,1,,0.00,0,,223
2011-10-22,76,58,39,56,44,37,95,80,44,30.19,30.12,30.03,10,8,4,8,1,,0.00,0,,134
2011-10-23,61,56,50,58,55,50,100,93,82,30.14,30.05,29.99,10,6,0,12,4,,0.85,7,Fog-Rain-Thunderstorm,54
2011-10-24,73,60,47,61,53,46,100,97,63,30.25,30.19,30.14,10,4,0,6,1,,0.00,3,Fog-Rain,243
2011-10-25,81,61,42,57,48,43,100,84,42,30.19,30.13,29.97,10,6,0,12,2,18,0.00,0,Fog-Rain,126
2011-10-26,78,65,52,66,60,45,94,76,51,29.99,29.91,29.85,10,10,7,16,5,20,0.01,4,Rain,210
2011-10-27,64,58,48,64,48,44,94,85,69,30.13,30.03,29.86,10,10,4,15,9,22,0.12,7,Rain,15
2011-10-28,59,49,38,46,42,35,93,81,40,30.23,30.16,30.07,10,8,4,13,6,21,0.25,5,Rain,353
2011-10-29,39,39,39,36,36,36,87,87,87,30.23,30.23,30.23,8,8,8,6,6,,0.00,0,,235
2011-10-30,66,54,42,41,38,34,88,57,32,30.22,30.15,30.12,10,10,10,10,7,,0.00,0,,199
2011-10-31,71,52,34,42,37,27,93,69,21,30.23,30.19,30.15,10,10,10,7,2,,0.00,0,,228